Atkins, Iowa
Current Conditions -  °F | °C
As of 9:52 AM on Sunday 23 Nov 2014 (Local Time) from KCID Reporting Station
Moderate Rain Moderate Rain  
Wind Chill:   Ceiling: 500
Heat Index:   Visibility: 2mi
Dew Point:   Wind: 9mph
Humidity: 100%   Direction: 150°SSE
Pressure: 29.54"   Gusts: NA
Location:  42°N, 91.86°W
Report Text: KCID 231552Z 15008KT 2SM RA BR OVC005 09/09 A2954 RMK AO2 SLP006 P0017 T00940094
Loading
Personal Weather Stations






























Interactive Weather Map New forecast layout! Learn more

10-Day Weather Forecast

Advertisements
Track Severe Weather on mobile